Time;durP1;ratioP1;P1;durP2;ratioP2;P2;SDS_P1;SDS_P2;PMS_P1;PMS_P2;Temp;Humidity;BMP_temperature;BMP_pressure;BME280_temperature;BME280_humidity;BME280_pressure;Samples;Min_cycle;Max_cycle;Signal;HPM_P1;HPM_P2
2021/01/05 00:02:19;;;;;;;9.65;7.35;;;;;;;;;;4795637;30;20518;-83
2021/01/05 00:04:46;;;;;;;9.32;7.03;;;;;;;;;;4795070;30;20222;-83
2021/01/05 00:07:13;;;;;;;9.70;7.05;;;;;;;;;;4794903;30;20187;-82
2021/01/05 00:09:41;;;;;;;10.20;7.63;;;;;;;;;;4794906;30;20264;-82
2021/01/05 00:12:10;;;;;;;10.18;7.55;;;;;;;;;;4795081;30;20480;-82
2021/01/05 00:14:41;;;;;;;8.82;7.38;;;;;;;;;;4794706;29;20291;-84
2021/01/05 00:17:09;;;;;;;9.45;7.60;;;;;;;;;;4794275;30;20203;-82
2021/01/05 00:19:36;;;;;;;11.18;6.85;;;;;;;;;;4794995;30;20581;-82
2021/01/05 00:22:05;;;;;;;9.93;7.88;;;;;;;;;;4794851;30;20209;-82
2021/01/05 00:24:32;;;;;;;9.02;7.55;;;;;;;;;;4794425;30;20227;-82
2021/01/05 00:26:59;;;;;;;11.13;8.27;;;;;;;;;;4794298;30;20199;-82
2021/01/05 00:29:26;;;;;;;11.02;7.07;;;;;;;;;;4795045;30;20184;-82
2021/01/05 00:32:08;;;;;;;8.90;7.10;;;;;;;;;;4794867;30;20215;-82
2021/01/05 00:34:35;;;;;;;10.07;7.25;;;;;;;;;;4794389;30;20315;-83
2021/01/05 00:37:03;;;;;;;10.85;7.82;;;;;;;;;;4790247;30;20294;-82
2021/01/05 00:39:30;;;;;;;9.68;7.70;;;;;;;;;;4794505;30;20543;-82
2021/01/05 00:41:57;;;;;;;11.60;8.68;;;;;;;;;;4794616;30;20214;-82
2021/01/05 00:44:24;;;;;;;8.70;6.80;;;;;;;;;;4793577;29;20509;-83
2021/01/05 00:46:51;;;;;;;11.88;7.82;;;;;;;;;;4794145;30;20192;-83
2021/01/05 00:49:19;;;;;;;12.52;9.23;;;;;;;;;;4794676;30;20202;-84
2021/01/05 00:51:46;;;;;;;9.73;7.55;;;;;;;;;;4794709;30;20225;-83
2021/01/05 00:54:13;;;;;;;11.38;7.55;;;;;;;;;;4794750;30;20187;-83
2021/01/05 00:56:40;;;;;;;10.25;8.18;;;;;;;;;;4793983;29;20574;-83
2021/01/05 00:59:07;;;;;;;9.90;6.82;;;;;;;;;;4794523;30;20211;-83
2021/01/05 01:01:34;;;;;;;12.90;7.85;;;;;;;;;;4794835;30;20191;-84
2021/01/05 01:04:01;;;;;;;11.77;7.78;;;;;;;;;;4809974;29;20205;-84
2021/01/05 01:06:29;;;;;;;8.65;6.75;;;;;;;;;;4812355;29;20206;-82
2021/01/05 01:08:56;;;;;;;12.05;8.48;;;;;;;;;;4813472;29;20195;-83
2021/01/05 01:11:22;;;;;;;14.10;8.32;;;;;;;;;;4806164;29;20211;-80
2021/01/05 01:13:49;;;;;;;13.07;8.52;;;;;;;;;;4812046;29;20227;-82
2021/01/05 01:16:16;;;;;;;10.02;7.65;;;;;;;;;;4811195;29;20213;-82
2021/01/05 01:18:43;;;;;;;9.95;7.80;;;;;;;;;;4812251;29;20438;-82
2021/01/05 01:21:10;;;;;;;11.50;8.25;;;;;;;;;;4812221;29;20267;-82
2021/01/05 01:23:38;;;;;;;12.73;8.48;;;;;;;;;;4812069;29;20214;-81
2021/01/05 01:26:05;;;;;;;14.02;10.15;;;;;;;;;;4811607;29;20215;-82
2021/01/05 01:28:31;;;;;;;12.00;9.10;;;;;;;;;;4812195;29;20205;-82
2021/01/05 01:30:58;;;;;;;13.77;9.20;;;;;;;;;;4811829;29;20537;-81
2021/01/05 01:33:25;;;;;;;10.20;8.02;;;;;;;;;;4811752;29;20214;-82
2021/01/05 01:35:52;;;;;;;11.98;7.53;;;;;;;;;;4811118;29;20591;-82
2021/01/05 01:38:19;;;;;;;11.75;8.80;;;;;;;;;;4811915;29;20199;-81
2021/01/05 01:40:47;;;;;;;11.10;8.85;;;;;;;;;;4812059;29;20473;-82
2021/01/05 01:43:14;;;;;;;10.73;7.57;;;;;;;;;;4811563;29;20238;-82
2021/01/05 01:45:41;;;;;;;9.23;7.55;;;;;;;;;;4811349;29;20214;-82
2021/01/05 01:48:09;;;;;;;10.43;7.97;;;;;;;;;;4811963;29;20199;-82
2021/01/05 01:50:37;;;;;;;13.00;8.90;;;;;;;;;;4811235;29;20272;-81
2021/01/05 01:53:51;;;;;;;11.73;8.40;;;;;;;;;;4811633;29;20191;-82
2021/01/05 01:56:38;;;;;;;12.05;8.30;;;;;;;;;;4807753;29;20538;-82
2021/01/05 01:59:21;;;;;;;12.05;8.55;;;;;;;;;;4811711;29;20243;-82
2021/01/05 02:02:00;;;;;;;9.70;8.70;;;;;;;;;;4811542;29;20190;-82
2021/01/05 02:04:51;;;;;;;15.23;9.40;;;;;;;;;;4811230;29;20214;-82
2021/01/05 02:07:36;;;;;;;10.27;7.38;;;;;;;;;;4811386;29;20195;-81
2021/01/05 02:10:33;;;;;;;10.40;8.20;;;;;;;;;;4811126;29;20194;-83
2021/01/05 02:13:30;;;;;;;13.68;9.60;;;;;;;;;;4811192;29;20300;-81
2021/01/05 02:16:16;;;;;;;11.48;9.18;;;;;;;;;;4810806;29;20260;-82
2021/01/05 02:18:46;;;;;;;16.02;11.43;;;;;;;;;;4810873;29;20199;-82
2021/01/05 02:21:23;;;;;;;12.50;9.45;;;;;;;;;;4810934;29;20480;-82
2021/01/05 02:24:24;;;;;;;11.45;8.23;;;;;;;;;;4811166;29;20205;-82
2021/01/05 02:26:57;;;;;;;8.55;7.53;;;;;;;;;;4810355;29;20193;-82
2021/01/05 02:29:26;;;;;;;9.88;8.85;;;;;;;;;;4810812;29;20194;-82
2021/01/05 02:32:23;;;;;;;9.32;7.47;;;;;;;;;;4811085;29;20198;-82
2021/01/05 02:35:17;;;;;;;8.68;7.28;;;;;;;;;;4810493;29;20213;-82
2021/01/05 02:37:59;;;;;;;9.45;7.22;;;;;;;;;;4810895;29;20205;-83
2021/01/05 02:40:42;;;;;;;9.20;6.80;;;;;;;;;;4810803;29;20569;-83
2021/01/05 02:44:06;;;;;;;10.70;7.90;;;;;;;;;;4784686;29;20237;-82
2021/01/05 02:46:52;;;;;;;12.05;8.27;;;;;;;;;;4810264;29;20215;-82
2021/01/05 02:49:32;;;;;;;11.85;8.93;;;;;;;;;;4810843;29;20202;-82
2021/01/05 02:52:47;;;;;;;8.32;6.75;;;;;;;;;;4810806;29;20203;-82
2021/01/05 02:55:50;;;;;;;9.75;7.47;;;;;;;;;;4805668;29;20206;-82
2021/01/05 02:59:01;;;;;;;9.48;6.93;;;;;;;;;;4810716;29;20194;-83
2021/01/05 03:02:07;;;;;;;7.63;6.63;;;;;;;;;;4755328;30;20216;-82
2021/01/05 03:04:34;;;;;;;8.35;6.68;;;;;;;;;;4755029;30;20249;-81
2021/01/05 03:07:06;;;;;;;9.30;6.65;;;;;;;;;;4754874;30;20661;-83
2021/01/05 03:10:18;;;;;;;8.05;6.97;;;;;;;;;;4755476;30;20188;-82
2021/01/05 03:13:06;;;;;;;8.07;6.65;;;;;;;;;;4755142;30;20597;-82
2021/01/05 03:15:44;;;;;;;8.35;6.63;;;;;;;;;;4754728;30;20189;-82
2021/01/05 03:18:22;;;;;;;10.02;6.80;;;;;;;;;;4755175;30;20203;-82
2021/01/05 03:20:56;;;;;;;8.88;7.45;;;;;;;;;;4756373;30;20201;-82
2021/01/05 03:23:24;;;;;;;8.88;6.97;;;;;;;;;;4758819;30;20196;-82
2021/01/05 03:25:52;;;;;;;9.35;7.43;;;;;;;;;;4758259;30;20232;-82
2021/01/05 03:28:23;;;;;;;9.45;6.72;;;;;;;;;;4715257;30;20219;-82
2021/01/05 03:30:56;;;;;;;8.25;6.95;;;;;;;;;;4759011;30;20580;-83
2021/01/05 03:33:24;;;;;;;7.68;6.43;;;;;;;;;;4758631;30;20200;-82
2021/01/05 03:35:51;;;;;;;9.85;7.20;;;;;;;;;;4758321;30;20200;-83
2021/01/05 03:38:18;;;;;;;9.30;7.28;;;;;;;;;;4775279;29;20211;-83
2021/01/05 03:40:45;;;;;;;8.98;7.05;;;;;;;;;;4813933;29;20194;-82
2021/01/05 03:43:12;;;;;;;9.27;7.32;;;;;;;;;;4813787;29;20510;-82
2021/01/05 03:45:39;;;;;;;12.98;8.35;;;;;;;;;;4813426;29;20615;-82
2021/01/05 03:48:07;;;;;;;9.45;7.15;;;;;;;;;;4813947;29;20573;-83
2021/01/05 03:50:35;;;;;;;9.65;7.15;;;;;;;;;;4813825;29;20279;-82
2021/01/05 03:53:02;;;;;;;9.98;8.02;;;;;;;;;;4813769;29;20183;-83
2021/01/05 03:55:29;;;;;;;9.15;7.28;;;;;;;;;;4813182;29;20260;-82
2021/01/05 03:57:56;;;;;;;9.65;6.97;;;;;;;;;;4813881;29;20203;-82
2021/01/05 04:00:26;;;;;;;9.07;7.03;;;;;;;;;;4813584;29;20457;-83
2021/01/05 04:02:54;;;;;;;9.60;8.13;;;;;;;;;;4813679;29;20187;-82
2021/01/05 04:05:22;;;;;;;10.30;7.80;;;;;;;;;;4812958;29;20470;-82
2021/01/05 04:07:49;;;;;;;9.95;7.07;;;;;;;;;;4813476;29;20199;-83
2021/01/05 04:10:18;;;;;;;9.55;6.38;;;;;;;;;;4813472;29;20270;-81
2021/01/05 04:12:45;;;;;;;9.18;6.57;;;;;;;;;;4813324;29;20187;-82
2021/01/05 04:15:20;;;;;;;10.13;7.43;;;;;;;;;;4812412;29;20493;-81
2021/01/05 04:17:47;;;;;;;10.93;7.40;;;;;;;;;;4813332;29;20198;-81
2021/01/05 04:20:16;;;;;;;7.88;6.53;;;;;;;;;;4813238;29;20187;-82
2021/01/05 04:22:43;;;;;;;9.48;7.43;;;;;;;;;;4813177;29;20279;-81
2021/01/05 04:25:13;;;;;;;8.48;7.40;;;;;;;;;;4812646;29;20191;-82
2021/01/05 04:27:40;;;;;;;10.95;7.10;;;;;;;;;;4813165;29;20190;-81
2021/01/05 04:30:09;;;;;;;10.27;7.68;;;;;;;;;;4813280;29;20206;-82
2021/01/05 04:32:36;;;;;;;11.48;8.38;;;;;;;;;;4812503;29;20206;-82
2021/01/05 04:35:04;;;;;;;12.40;8.95;;;;;;;;;;4812526;29;20202;-81
2021/01/05 04:37:31;;;;;;;10.60;7.88;;;;;;;;;;4812733;29;20686;-81
2021/01/05 04:39:58;;;;;;;13.90;8.88;;;;;;;;;;4812704;29;20206;-81
2021/01/05 04:42:32;;;;;;;14.70;9.65;;;;;;;;;;4812508;29;20553;-81
2021/01/05 04:45:04;;;;;;;11.15;8.75;;;;;;;;;;4812519;29;20191;-81
2021/01/05 04:47:39;;;;;;;10.80;7.80;;;;;;;;;;4813040;29;20241;-80
2021/01/05 04:50:15;;;;;;;11.93;8.52;;;;;;;;;;4812868;29;20255;-82
2021/01/05 04:52:49;;;;;;;13.23;9.73;;;;;;;;;;4812627;29;20581;-82
2021/01/05 04:55:40;;;;;;;13.90;9.48;;;;;;;;;;4812211;29;20239;-82
2021/01/05 04:58:13;;;;;;;11.98;8.85;;;;;;;;;;4812669;29;20247;-82
2021/01/05 05:00:42;;;;;;;12.93;8.18;;;;;;;;;;4812644;29;20199;-82
2021/01/05 05:03:19;;;;;;;14.48;8.48;;;;;;;;;;4812624;29;20285;-81
2021/01/05 05:06:06;;;;;;;15.15;9.52;;;;;;;;;;4812011;29;20219;-82
2021/01/05 05:08:46;;;;;;;11.90;7.85;;;;;;;;;;4812120;29;20213;-82
2021/01/05 05:11:17;;;;;;;12.85;7.85;;;;;;;;;;4812470;29;20194;-82
2021/01/05 05:13:54;;;;;;;13.07;8.32;;;;;;;;;;4812047;29;20218;-82
2021/01/05 05:16:45;;;;;;;12.60;8.85;;;;;;;;;;4811995;29;20203;-81
2021/01/05 05:19:51;;;;;;;13.48;8.70;;;;;;;;;;4812397;29;20244;-82
2021/01/05 05:22:28;;;;;;;13.48;8.38;;;;;;;;;;4756934;30;20204;-83
2021/01/05 05:24:58;;;;;;;13.27;8.65;;;;;;;;;;4756253;30;20228;-82
2021/01/05 05:27:38;;;;;;;13.43;9.02;;;;;;;;;;4756616;30;20607;-82
2021/01/05 05:30:11;;;;;;;13.13;8.52;;;;;;;;;;4756663;30;20258;-82
2021/01/05 05:32:40;;;;;;;11.80;9.23;;;;;;;;;;4756724;30;20286;-81
2021/01/05 05:35:48;;;;;;;10.90;8.30;;;;;;;;;;4756064;30;20196;-82
2021/01/05 05:38:36;;;;;;;13.50;9.18;;;;;;;;;;4756601;30;20192;-82
2021/01/05 05:41:17;;;;;;;13.90;8.90;;;;;;;;;;4756544;30;20189;-82
2021/01/05 05:44:11;;;;;;;10.77;8.30;;;;;;;;;;4792787;29;20246;-82
2021/01/05 05:46:43;;;;;;;11.55;9.75;;;;;;;;;;4810994;29;20616;-84
2021/01/05 05:49:23;;;;;;;12.02;8.35;;;;;;;;;;4811623;29;20456;-84
2021/01/05 05:51:52;;;;;;;12.88;9.13;;;;;;;;;;4811817;29;20561;-83
2021/01/05 05:54:21;;;;;;;11.05;8.70;;;;;;;;;;4811515;29;20194;-82
2021/01/05 05:57:07;;;;;;;14.25;10.13;;;;;;;;;;4811233;29;20194;-84
2021/01/05 05:59:44;;;;;;;10.15;7.75;;;;;;;;;;4811573;29;20210;-83
2021/01/05 06:02:14;;;;;;;11.55;8.73;;;;;;;;;;4811410;29;20206;-84
2021/01/05 06:04:41;;;;;;;13.90;9.27;;;;;;;;;;4810958;29;20226;-83
2021/01/05 06:07:08;;;;;;;12.52;8.75;;;;;;;;;;4811156;29;20210;-82
2021/01/05 06:09:35;;;;;;;8.27;7.38;;;;;;;;;;4811226;29;20581;-84
2021/01/05 06:12:02;;;;;;;11.90;8.40;;;;;;;;;;4811486;29;20210;-84
2021/01/05 06:14:31;;;;;;;10.13;7.18;;;;;;;;;;4811382;29;20222;-84
2021/01/05 06:16:58;;;;;;;9.75;7.45;;;;;;;;;;4810356;29;20553;-83
2021/01/05 06:19:26;;;;;;;11.45;8.10;;;;;;;;;;4811435;29;20202;-84
2021/01/05 06:21:53;;;;;;;9.20;7.40;;;;;;;;;;4810898;29;20680;-83
2021/01/05 06:24:20;;;;;;;10.60;7.88;;;;;;;;;;4810981;29;20298;-83
2021/01/05 06:26:47;;;;;;;13.02;8.68;;;;;;;;;;4809994;29;20601;-84
2021/01/05 06:29:14;;;;;;;10.90;8.40;;;;;;;;;;4869093;24;20249;-87
2021/01/05 06:31:41;;;;;;;11.07;8.23;;;;;;;;;;4795912;29;20573;-89
2021/01/05 06:34:08;;;;;;;14.43;9.35;;;;;;;;;;4803899;29;20533;-87
2021/01/05 06:36:36;;;;;;;10.60;8.93;;;;;;;;;;4790937;29;20302;-89
2021/01/05 06:39:04;;;;;;;9.98;8.10;;;;;;;;;;4747857;30;20222;-88
2021/01/05 06:41:31;;;;;;;9.40;7.07;;;;;;;;;;4792579;29;20222;-89
2021/01/05 06:43:58;;;;;;;13.55;8.80;;;;;;;;;;4791990;30;20215;-88
2021/01/05 06:46:25;;;;;;;10.38;7.85;;;;;;;;;;4791969;29;20227;-89
2021/01/05 06:48:52;;;;;;;13.07;8.63;;;;;;;;;;4795665;29;20194;-89
2021/01/05 06:51:19;;;;;;;9.82;8.15;;;;;;;;;;4829312;29;20296;-88
2021/01/05 06:53:47;;;;;;;12.73;8.82;;;;;;;;;;4829188;29;20210;-88
2021/01/05 06:56:14;;;;;;;10.85;8.43;;;;;;;;;;4828716;29;20281;-88
2021/01/05 06:58:41;;;;;;;12.07;8.40;;;;;;;;;;4829328;29;20221;-88
2021/01/05 07:01:09;;;;;;;10.35;7.78;;;;;;;;;;4834559;29;20190;-89
2021/01/05 07:03:36;;;;;;;14.57;9.27;;;;;;;;;;4837968;29;20198;-88
2021/01/05 07:06:03;;;;;;;12.35;9.70;;;;;;;;;;4811150;29;20217;-87
2021/01/05 07:08:30;;;;;;;9.98;8.43;;;;;;;;;;4828292;29;20205;-88
2021/01/05 07:10:58;;;;;;;11.02;8.30;;;;;;;;;;4783578;29;20244;-88
2021/01/05 07:13:25;;;;;;;11.23;8.65;;;;;;;;;;4829644;29;20204;-89
2021/01/05 07:15:53;;;;;;;11.80;8.52;;;;;;;;;;4828932;29;20202;-88
2021/01/05 07:18:20;;;;;;;10.80;6.93;;;;;;;;;;4829526;29;20462;-89
2021/01/05 07:20:50;;;;;;;10.68;7.90;;;;;;;;;;4829402;29;20204;-89
2021/01/05 07:23:17;;;;;;;11.80;8.68;;;;;;;;;;4829807;29;20529;-88
2021/01/05 07:25:45;;;;;;;14.38;8.95;;;;;;;;;;4829096;29;20191;-89
2021/01/05 07:28:14;;;;;;;9.52;7.55;;;;;;;;;;4829017;29;20225;-89
2021/01/05 07:30:41;;;;;;;10.63;8.18;;;;;;;;;;4829659;29;20267;-88
2021/01/05 07:33:08;;;;;;;11.52;7.75;;;;;;;;;;4829209;29;20217;-89
2021/01/05 07:35:35;;;;;;;10.93;8.50;;;;;;;;;;4828875;29;20565;-88
2021/01/05 07:38:03;;;;;;;10.63;7.75;;;;;;;;;;4829272;29;20601;-87
2021/01/05 07:40:31;;;;;;;9.82;7.03;;;;;;;;;;4783074;29;20292;-88
2021/01/05 07:42:58;;;;;;;10.65;7.97;;;;;;;;;;4828742;29;20220;-87
2021/01/05 07:45:26;;;;;;;11.88;8.00;;;;;;;;;;4828776;29;20210;-87
2021/01/05 07:47:53;;;;;;;12.20;8.10;;;;;;;;;;4829022;29;20213;-88
2021/01/05 07:50:22;;;;;;;10.07;7.38;;;;;;;;;;4828833;29;20591;-88
2021/01/05 07:52:49;;;;;;;9.57;7.65;;;;;;;;;;4828822;29;20565;-87
2021/01/05 07:55:19;;;;;;;8.95;6.78;;;;;;;;;;4828890;29;20338;-86
2021/01/05 07:57:46;;;;;;;9.23;7.57;;;;;;;;;;4810988;29;20199;-88
2021/01/05 08:00:16;;;;;;;10.25;7.72;;;;;;;;;;4827847;29;20230;-88
2021/01/05 08:02:45;;;;;;;12.15;8.25;;;;;;;;;;4828690;29;20191;-86
2021/01/05 08:05:13;;;;;;;9.25;7.05;;;;;;;;;;4829025;29;20210;-87
2021/01/05 08:07:40;;;;;;;10.18;7.68;;;;;;;;;;4831565;29;20350;-88
2021/01/05 08:10:10;;;;;;;10.27;8.15;;;;;;;;;;4831773;29;20285;-87
2021/01/05 08:12:37;;;;;;;10.35;9.25;;;;;;;;;;4831137;29;20212;-88
2021/01/05 08:15:05;;;;;;;9.43;7.82;;;;;;;;;;4822190;29;20190;-88
2021/01/05 08:17:32;;;;;;;11.40;7.95;;;;;;;;;;4831596;29;20202;-87
2021/01/05 08:20:00;;;;;;;13.13;8.93;;;;;;;;;;4831556;29;20621;-90
2021/01/05 08:22:27;;;;;;;9.73;7.78;;;;;;;;;;4831709;29;20186;-89
2021/01/05 08:24:55;;;;;;;9.48;7.30;;;;;;;;;;4831893;29;20194;-89
2021/01/05 08:27:22;;;;;;;12.30;8.82;;;;;;;;;;4831833;29;20252;-89
2021/01/05 08:29:49;;;;;;;9.10;7.10;;;;;;;;;;4831509;29;20248;-89
2021/01/05 08:32:16;;;;;;;9.70;8.05;;;;;;;;;;4831923;29;20276;-88
2021/01/05 08:34:44;;;;;;;10.68;8.23;;;;;;;;;;4831696;29;20200;-88
2021/01/05 08:37:12;;;;;;;10.35;8.30;;;;;;;;;;4831484;29;20490;-88
2021/01/05 08:39:39;;;;;;;11.40;9.18;;;;;;;;;;4831378;29;20580;-88
2021/01/05 08:42:07;;;;;;;10.98;8.02;;;;;;;;;;4831654;29;20197;-87
2021/01/05 08:44:34;;;;;;;11.20;7.47;;;;;;;;;;4831522;29;20198;-88
2021/01/05 08:47:03;;;;;;;10.55;8.60;;;;;;;;;;4831405;29;20224;-89
2021/01/05 08:49:32;;;;;;;12.60;9.25;;;;;;;;;;4831427;29;20561;-88
2021/01/05 08:51:59;;;;;;;11.27;8.20;;;;;;;;;;4831397;29;20221;-88
2021/01/05 08:54:27;;;;;;;9.63;8.63;;;;;;;;;;4831264;29;20247;-89
2021/01/05 08:56:56;;;;;;;12.93;9.18;;;;;;;;;;4831345;29;20190;-88
2021/01/05 08:59:23;;;;;;;12.57;9.70;;;;;;;;;;4831334;29;20234;-88
2021/01/05 09:01:50;;;;;;;12.43;8.90;;;;;;;;;;4831416;29;20206;-88
2021/01/05 09:04:18;;;;;;;12.65;9.02;;;;;;;;;;4831306;29;20201;-88
2021/01/05 09:06:48;;;;;;;11.38;8.57;;;;;;;;;;4831449;29;20206;-88
2021/01/05 09:09:15;;;;;;;12.68;9.35;;;;;;;;;;4830993;29;20516;-90
2021/01/05 09:11:43;;;;;;;12.32;7.55;;;;;;;;;;4831266;29;20518;-89
2021/01/05 09:14:11;;;;;;;12.85;8.68;;;;;;;;;;4831307;29;20544;-89
2021/01/05 09:16:38;;;;;;;12.35;9.63;;;;;;;;;;4830923;29;20217;-88
2021/01/05 09:19:05;;;;;;;12.40;9.85;;;;;;;;;;4830514;29;20194;-90
2021/01/05 09:21:32;;;;;;;13.98;10.88;;;;;;;;;;4831018;29;20201;-89
2021/01/05 09:24:02;;;;;;;13.10;9.57;;;;;;;;;;4832068;29;20206;-90
2021/01/05 09:26:33;;;;;;;11.00;8.88;;;;;;;;;;4831530;29;20331;-89
2021/01/05 09:29:01;;;;;;;11.80;8.88;;;;;;;;;;4830905;29;20540;-89
2021/01/05 09:31:28;;;;;;;11.52;8.65;;;;;;;;;;4830850;29;20186;-90
2021/01/05 09:33:56;;;;;;;14.18;9.73;;;;;;;;;;4830894;29;20220;-89
2021/01/05 09:36:31;;;;;;;13.32;9.57;;;;;;;;;;4830506;29;20296;-88
2021/01/05 09:38:58;;;;;;;11.70;8.80;;;;;;;;;;4830861;29;20270;-90
2021/01/05 09:41:28;;;;;;;10.82;8.52;;;;;;;;;;4831096;29;20205;-89
2021/01/05 09:43:55;;;;;;;12.20;9.18;;;;;;;;;;4830529;29;20182;-88
2021/01/05 09:46:24;;;;;;;9.65;8.02;;;;;;;;;;4831334;29;20277;-88
2021/01/05 09:48:51;;;;;;;10.35;7.63;;;;;;;;;;4830641;29;20229;-89
2021/01/05 09:51:23;;;;;;;10.52;8.02;;;;;;;;;;4830319;29;20190;-88
2021/01/05 09:53:50;;;;;;;10.02;7.97;;;;;;;;;;4830865;29;20545;-89
2021/01/05 09:56:17;;;;;;;10.55;8.35;;;;;;;;;;4830493;29;20537;-90
2021/01/05 09:58:45;;;;;;;9.35;8.00;;;;;;;;;;4830357;29;20222;-89
2021/01/05 10:01:12;;;;;;;9.13;8.13;;;;;;;;;;4830449;29;20201;-89
2021/01/05 10:03:40;;;;;;;10.23;8.30;;;;;;;;;;4830394;29;20201;-89
2021/01/05 10:06:10;;;;;;;9.57;8.27;;;;;;;;;;4830102;29;20190;-89
2021/01/05 10:08:37;;;;;;;9.77;8.48;;;;;;;;;;4830217;29;20217;-89
2021/01/05 10:11:04;;;;;;;9.35;7.38;;;;;;;;;;4830199;29;20561;-89
2021/01/05 10:13:31;;;;;;;9.88;8.15;;;;;;;;;;4829962;29;20190;-89
2021/01/05 10:15:58;;;;;;;11.18;7.93;;;;;;;;;;4830767;29;20468;-89
2021/01/05 10:18:25;;;;;;;11.25;7.88;;;;;;;;;;4830698;29;20202;-88
2021/01/05 10:20:53;;;;;;;9.00;7.72;;;;;;;;;;4829607;29;20236;-89
2021/01/05 10:23:21;;;;;;;11.13;8.82;;;;;;;;;;4830150;29;20190;-89
2021/01/05 10:25:48;;;;;;;9.80;7.45;;;;;;;;;;4830071;29;20195;-89
2021/01/05 10:28:15;;;;;;;9.50;7.43;;;;;;;;;;4829493;29;20236;-89
2021/01/05 10:30:42;;;;;;;10.98;8.05;;;;;;;;;;4829466;29;20214;-90
2021/01/05 10:33:09;;;;;;;8.55;6.70;;;;;;;;;;4783983;29;20205;-89
2021/01/05 10:35:36;;;;;;;14.85;8.02;;;;;;;;;;4829969;29;20194;-90
2021/01/05 10:38:04;;;;;;;10.40;7.63;;;;;;;;;;4829945;29;20262;-88
2021/01/05 10:40:31;;;;;;;11.30;8.13;;;;;;;;;;4829999;29;20182;-89
2021/01/05 10:42:58;;;;;;;10.07;8.50;;;;;;;;;;4830285;29;20205;-90
2021/01/05 10:45:27;;;;;;;12.77;7.22;;;;;;;;;;4829923;29;20193;-89
2021/01/05 10:47:54;;;;;;;9.30;7.45;;;;;;;;;;4829866;29;20218;-90
2021/01/05 10:50:24;;;;;;;9.75;7.40;;;;;;;;;;4829853;29;20201;-90
2021/01/05 10:52:52;;;;;;;7.30;6.50;;;;;;;;;;4830215;29;20460;-89
2021/01/05 10:55:22;;;;;;;9.70;7.18;;;;;;;;;;4829754;29;20194;-89
2021/01/05 10:57:50;;;;;;;9.65;7.18;;;;;;;;;;4829630;29;20202;-89
2021/01/05 11:00:19;;;;;;;7.80;6.50;;;;;;;;;;4829358;29;20234;-88
2021/01/05 11:02:46;;;;;;;8.80;6.35;;;;;;;;;;4830077;29;20202;-90
2021/01/05 11:05:16;;;;;;;7.85;6.78;;;;;;;;;;4829588;29;20579;-90
2021/01/05 11:07:43;;;;;;;8.85;7.00;;;;;;;;;;4813746;29;20683;-90
2021/01/05 11:10:12;;;;;;;8.43;6.65;;;;;;;;;;4828932;29;20499;-88
2021/01/05 11:12:40;;;;;;;6.75;5.80;;;;;;;;;;4829166;29;20186;-88
2021/01/05 11:15:08;;;;;;;9.27;7.07;;;;;;;;;;4829275;29;20186;-89
2021/01/05 11:17:35;;;;;;;11.52;7.28;;;;;;;;;;4829793;29;20629;-88
2021/01/05 11:20:03;;;;;;;7.43;6.47;;;;;;;;;;4829035;29;20568;-87
2021/01/05 11:22:29;;;;;;;9.15;6.70;;;;;;;;;;4829029;29;20200;-86
2021/01/05 11:24:56;;;;;;;11.80;7.40;;;;;;;;;;4829068;29;20210;-88
2021/01/05 11:27:23;;;;;;;7.68;6.50;;;;;;;;;;4828576;29;20465;-87
2021/01/05 11:29:51;;;;;;;9.65;6.95;;;;;;;;;;4845928;29;20273;-88
2021/01/05 11:32:19;;;;;;;8.82;6.57;;;;;;;;;;4847178;29;20215;-88
2021/01/05 11:34:47;;;;;;;9.32;7.70;;;;;;;;;;4847204;29;20663;-88
2021/01/05 11:37:17;;;;;;;7.53;6.72;;;;;;;;;;4847013;29;20463;-88
2021/01/05 11:39:46;;;;;;;8.23;6.28;;;;;;;;;;4847611;29;20198;-88
2021/01/05 11:42:16;;;;;;;8.55;6.97;;;;;;;;;;4849019;29;20639;-89
2021/01/05 11:44:45;;;;;;;7.07;5.97;;;;;;;;;;4850492;29;20491;-88
2021/01/05 11:47:13;;;;;;;8.10;7.18;;;;;;;;;;4850701;29;20202;-90
2021/01/05 11:49:40;;;;;;;7.82;6.35;;;;;;;;;;4851916;29;20603;-94
2021/01/05 11:52:08;;;;;;;8.68;6.80;;;;;;;;;;4852560;29;20205;-94
2021/01/05 11:54:35;;;;;;;7.38;6.63;;;;;;;;;;4851989;29;20213;-94
2021/01/05 11:57:02;;;;;;;9.52;7.22;;;;;;;;;;4851834;29;20579;-93
2021/01/05 11:59:30;;;;;;;7.03;6.18;;;;;;;;;;4851253;29;20244;-93
2021/01/05 12:02:00;;;;;;;8.15;6.32;;;;;;;;;;4851345;29;20201;-92
2021/01/05 12:04:29;;;;;;;6.68;5.82;;;;;;;;;;4850905;29;20205;-92
2021/01/05 12:07:05;;;;;;;8.32;6.57;;;;;;;;;;4851520;29;20209;-95
2021/01/05 12:09:32;;;;;;;7.05;6.15;;;;;;;;;;4852426;29;20598;-93
2021/01/05 12:12:02;;;;;;;7.88;6.43;;;;;;;;;;4851844;29;20213;-94
2021/01/05 12:14:30;;;;;;;6.07;5.47;;;;;;;;;;4857255;29;20211;-93
2021/01/05 12:16:59;;;;;;;9.27;6.10;;;;;;;;;;4852133;29;20544;-90
2021/01/05 12:19:30;;;;;;;8.95;6.00;;;;;;;;;;4850210;29;20291;-91
2021/01/05 12:22:00;;;;;;;7.97;6.28;;;;;;;;;;4818822;29;20257;-91
2021/01/05 12:24:29;;;;;;;6.47;5.55;;;;;;;;;;4841881;29;20194;-91
2021/01/05 12:26:58;;;;;;;7.45;6.50;;;;;;;;;;4832064;29;20205;-91
2021/01/05 12:29:27;;;;;;;6.00;5.38;;;;;;;;;;4831378;29;20245;-93
2021/01/05 12:31:57;;;;;;;6.72;5.57;;;;;;;;;;4836373;29;20220;-92
2021/01/05 12:34:27;;;;;;;6.80;5.88;;;;;;;;;;4838727;29;20206;-91
2021/01/05 12:36:55;;;;;;;6.13;5.10;;;;;;;;;;4832890;29;20200;-91
2021/01/05 12:49:44;;;;;;;6.75;5.78;;;;;;;;;;4692967;30;20222;-94
2021/01/05 12:52:38;;;;;;;8.10;6.47;;;;;;;;;;4707456;30;20305;-94
2021/01/05 12:58:35;;;;;;;6.32;5.70;;;;;;;;;;4700218;30;20482;-95
2021/01/05 13:14:29;;;;;;;6.68;5.95;;;;;;;;;;5429089;24;20237;-96
2021/01/05 13:17:14;;;;;;;6.72;5.90;;;;;;;;;;4847836;29;20273;-96
2021/01/05 13:19:41;;;;;;;7.53;6.22;;;;;;;;;;4855413;29;20266;-93
2021/01/05 13:22:08;;;;;;;6.75;5.75;;;;;;;;;;4849322;29;20651;-87
2021/01/05 13:24:35;;;;;;;7.72;6.57;;;;;;;;;;4849553;29;20205;-87
2021/01/05 13:27:04;;;;;;;6.93;5.75;;;;;;;;;;4849270;29;20189;-91
2021/01/05 13:29:35;;;;;;;7.28;6.57;;;;;;;;;;4849315;29;20269;-94
2021/01/05 13:32:06;;;;;;;8.38;6.25;;;;;;;;;;4849139;29;20193;-91
2021/01/05 13:34:36;;;;;;;6.60;5.88;;;;;;;;;;4849080;29;20185;-90
2021/01/05 13:37:06;;;;;;;6.63;6.00;;;;;;;;;;4845531;29;20447;-90
2021/01/05 13:40:15;;;;;;;8.75;6.30;;;;;;;;;;4832653;29;20222;-95
2021/01/05 13:43:00;;;;;;;8.15;6.55;;;;;;;;;;4759291;30;20220;-95
2021/01/05 13:49:45;;;;;;;7.13;6.18;;;;;;;;;;4671773;30;20365;-94
2021/01/05 13:52:18;;;;;;;10.82;6.28;;;;;;;;;;4672354;30;20212;-95
2021/01/05 13:55:12;;;;;;;7.85;6.70;;;;;;;;;;4671903;30;20299;-94
2021/01/05 13:57:39;;;;;;;7.30;6.47;;;;;;;;;;4666115;30;20226;-94
2021/01/05 14:00:08;;;;;;;9.65;7.60;;;;;;;;;;4671785;30;20260;-94
2021/01/05 14:02:35;;;;;;;10.63;7.95;;;;;;;;;;4671606;30;20226;-95
2021/01/05 14:05:05;;;;;;;7.38;6.22;;;;;;;;;;4671167;30;20219;-95
2021/01/05 14:07:32;;;;;;;8.18;6.18;;;;;;;;;;4671638;30;20238;-95
2021/01/05 14:52:08;;;;;;;6.50;5.88;;;;;;;;;;4541175;31;20216;-94
2021/01/05 14:54:36;;;;;;;6.35;5.10;;;;;;;;;;4578770;31;20230;-94
2021/01/05 15:01:04;;;;;;;6.65;5.00;;;;;;;;;;4639191;31;20497;-94
2021/01/05 15:03:31;;;;;;;6.68;4.82;;;;;;;;;;4640669;30;20220;-94
2021/01/05 15:16:57;;;;;;;5.80;5.20;;;;;;;;;;4547563;31;20236;-93
2021/01/05 15:20:10;;;;;;;6.43;4.90;;;;;;;;;;4609260;31;20289;-95
2021/01/05 15:23:08;;;;;;;7.57;4.90;;;;;;;;;;4609443;31;20226;-95
2021/01/05 15:25:35;;;;;;;5.75;4.80;;;;;;;;;;4586842;31;20219;-95
2021/01/05 15:28:03;;;;;;;5.63;5.05;;;;;;;;;;4565599;31;20216;-94
2021/01/05 16:14:04;;;;;;;4.47;4.07;;;;;;;;;;4494161;31;20292;-94
2021/01/05 16:16:37;;;;;;;5.47;4.38;;;;;;;;;;4520491;31;20279;-92
2021/01/05 16:19:23;;;;;;;;;;;;;;;;;;;;;
2021/01/05 16:22:25;;;;;;;4.70;4.18;;;;;;;;;;4537144;31;20499;-95
2021/01/05 16:28:10;;;;;;;3.53;3.22;;;;;;;;;;4523572;31;20279;-94
2021/01/05 16:30:37;;;;;;;4.07;3.70;;;;;;;;;;4524515;31;20253;-94
2021/01/05 16:33:06;;;;;;;4.25;3.85;;;;;;;;;;4524072;31;20226;-93
2021/01/05 16:35:36;;;;;;;3.70;3.40;;;;;;;;;;4536049;31;20225;-95
2021/01/05 16:40:45;;;;;;;4.03;3.60;;;;;;;;;;4543793;31;20215;-93
2021/01/05 16:43:17;;;;;;;3.72;3.42;;;;;;;;;;4551826;31;20220;-92
2021/01/05 16:45:45;;;;;;;4.32;3.92;;;;;;;;;;4581823;31;20230;-94
2021/01/05 16:48:13;;;;;;;4.90;3.90;;;;;;;;;;4605408;31;20214;-93
2021/01/05 16:50:40;;;;;;;4.97;4.47;;;;;;;;;;4593434;31;20258;-93
2021/01/05 16:53:09;;;;;;;5.20;4.70;;;;;;;;;;4588016;31;20259;-93
2021/01/05 16:55:41;;;;;;;5.25;4.75;;;;;;;;;;4589153;31;20226;-93
2021/01/05 16:58:08;;;;;;;5.00;4.55;;;;;;;;;;4588422;31;20219;-93
2021/01/05 17:00:35;;;;;;;5.20;4.78;;;;;;;;;;4588486;31;20333;-93
2021/01/05 17:03:02;;;;;;;5.70;5.13;;;;;;;;;;4587968;31;20461;-93
2021/01/05 17:05:37;;;;;;;6.43;5.82;;;;;;;;;;4587872;31;20216;-95
2021/01/05 17:08:05;;;;;;;6.10;4.95;;;;;;;;;;4587779;31;20226;-94
2021/01/05 17:10:34;;;;;;;7.03;6.30;;;;;;;;;;4587440;31;20582;-93
2021/01/05 17:13:02;;;;;;;5.95;5.35;;;;;;;;;;4587689;31;20756;-93
2021/01/05 17:15:31;;;;;;;6.38;5.10;;;;;;;;;;4593272;31;20311;-94
2021/01/05 17:18:01;;;;;;;4.53;4.13;;;;;;;;;;4603683;31;20210;-92
2021/01/05 17:20:31;;;;;;;5.20;4.55;;;;;;;;;;4603711;31;20508;-94
2021/01/05 17:23:00;;;;;;;4.38;3.97;;;;;;;;;;4603836;31;20219;-93